Warning: Javascript must be enabled to use all the features on this page!


Page Loading - Please Wait...

Click to hideNews Bulletins

Peak Streamflow for the Nation

USGS 07372200 Little River near Rochelle, LA

Lasalle Parish, Louisiana
Hydrologic Unit Code 08040304
Latitude  31°45'15", Longitude  92°20'40" NAD27
Drainage area 1,899.00  square miles
Gage datum 24.79 feet above NGVD29
Output formats
Table
Graph
Tab-separated file
peakfq (watstore) format
Reselect output format
Water
Year
Date Gage
Height
(feet)
Stream-
flow
(cfs)
1958 1958-09-24 37.32 31,900
1959 1959-04-23 32.94 13,100
1960 1960-03-06 33.12 13,500
1961 1961-02-25 35.87 24,700
1962 1961-12-20 36.76 30,000
1963 1963-03-13 19.33 2,420
1964 1964-05-01 31.63 10,200
1965 1965-04-02 35.56 23,000
1966 1966-02-13 39.22 44,700
1967 1967-04-17 29.40 7,180
1968 1968-04-11 39.88 51,900
1969 1968-12-04 32.78 11,300
1970 1970-03-27 24.77 3,650
1971 1971-05-16 34.63 16,600
1972 1972-01-07 35.03 16,900
1973 1973-03-18 36.08 23,300
1974 1974-04-14 40.20 54,800
1975 1975-05-08 39.16 44,900
1976 1976-03-31 31.84 8,880
1977 1977-03-07 34.90 18,000
1978 1978-05-12 33.71 14,900
1979 1979-01-22 36.89 29,400
1980 1980-04-01 36.87 29,800
1981 1981-03-07 23.59 4,030
1982 1982-04-24 35.53 21,400
1983 1982-12-29 45.88 108,000
1984 1984-03-08 37.54 35,600
1985 1985-03-01 33.90 14,300
1986 1985-11-04 31.95 10,300
1987 1987-03-02 37.84 34,600
1988 1987-11-18 41.09 60,600
1989 1989-07-03 41.672 65,600
1990 1990-01-23 38.212 39,000
1991 1991-05-02 39.172 48,100
1992 1992-03-08 34.49 16,900
1993 1993-04-13   15,5001
1994 1994-03-12   11,5001,2
1995 1995-04-25   91,2001,2
1996 1996-04-25   4,1201
1997 1997-02-17    
1998 1998-01-11   26,4001
1999 1999-02-01 42.462 77,500
2000 2000-04-06 36.782 29,600
2001 2001-03-05 37.962 36,300
2002 2001-12-18 37.23 23,900
2003 2003-02-25   26,7001,2
2004 2004-02-15 34.402 15,400
2005 2004-12-11 32.772 11,900
2006 2006-03-26 31.762 10,500
2007 2006-10-19 38.312 34,600
2008 2008-09-06 32.872 11,500
2009 2008-12-14 32.142 10,500
2010 2009-11-04 36.201,5 24,1002
2011 2011-05-07 18.552 2,700
2012 2012-03-26 36.292 21,000
2013 2013-01-13 35.552 17,300
2014 2014-04-11 36.43 21,800
2015 2015-05-24 35.21 17,200
2016 2016-03-12 49.931,2 133,000
2017 2017-09-04 33.011,2 17,800
2018 2018-02-28 38.11 31,200
2019 2019-01-06 39.332 33,300
2020 2020-04-26 38.292 29,200
?
  Peak Gage-Height Qualification Codes.
?
  Peak Streamflow Qualification Codes.